sensor_id;sensor_type;location;lat;lon;timestamp;pressure;altitude;pressure_sealevel;temperature;humidity
64679;BME280;51094;53.864;27.676;2024-01-10T00:00:47;99973.91;;;-2.51;95.74
64679;BME280;51094;53.864;27.676;2024-01-10T00:03:14;99946.88;;;-2.69;95.56
64679;BME280;51094;53.864;27.676;2024-01-10T00:05:41;99932.47;;;-2.73;96.03
64679;BME280;51094;53.864;27.676;2024-01-10T00:08:08;99967.13;;;-2.54;96.35
64679;BME280;51094;53.864;27.676;2024-01-10T00:10:35;99821.75;;;-3.35;96.05
64679;BME280;51094;53.864;27.676;2024-01-10T00:13:02;99956.09;;;-2.54;96.40
64679;BME280;51094;53.864;27.676;2024-01-10T00:15:29;99970.44;;;-2.38;96.82
64679;BME280;51094;53.864;27.676;2024-01-10T00:17:56;99944.22;;;-2.55;96.30
64679;BME280;51094;53.864;27.676;2024-01-10T00:20:23;99775.25;;;-3.54;95.81
64679;BME280;51094;53.864;27.676;2024-01-10T00:22:50;99967.06;;;-2.43;96.16
64679;BME280;51094;53.864;27.676;2024-01-10T00:25:17;99981.44;;;-2.33;96.37
64679;BME280;51094;53.864;27.676;2024-01-10T00:27:44;99894.34;;;-2.79;96.65
64679;BME280;51094;53.864;27.676;2024-01-10T00:30:11;99928.97;;;-2.58;96.59
64679;BME280;51094;53.864;27.676;2024-01-10T00:32:38;99978.88;;;-2.30;96.56
64679;BME280;51094;53.864;27.676;2024-01-10T00:35:05;99963.72;;;-2.53;96.51
64679;BME280;51094;53.864;27.676;2024-01-10T00:37:33;99958.50;;;-2.31;96.61
64679;BME280;51094;53.864;27.676;2024-01-10T00:40:00;99946.63;;;-2.34;96.64
64679;BME280;51094;53.864;27.676;2024-01-10T00:42:27;99807.28;;;-3.25;96.53
64679;BME280;51094;53.864;27.676;2024-01-10T00:44:53;99979.50;;;-2.04;96.48
64679;BME280;51094;53.864;27.676;2024-01-10T00:47:20;99977.00;;;-2.10;95.67
64679;BME280;51094;53.864;27.676;2024-01-10T00:49:47;99867.09;;;-2.65;96.33
64679;BME280;51094;53.864;27.676;2024-01-10T00:52:14;99895.84;;;-2.54;95.42
64679;BME280;51094;53.864;27.676;2024-01-10T00:54:41;99974.44;;;-2.07;95.85
64679;BME280;51094;53.864;27.676;2024-01-10T00:57:10;99960.78;;;-1.99;96.20
64679;BME280;51094;53.864;27.676;2024-01-10T00:59:37;99878.88;;;-2.58;95.78
64679;BME280;51094;53.864;27.676;2024-01-10T01:02:04;99946.44;;;-2.13;95.92
64679;BME280;51094;53.864;27.676;2024-01-10T01:04:31;99943.03;;;-2.12;96.07
64679;BME280;51094;53.864;27.676;2024-01-10T01:06:59;99959.91;;;-1.97;96.06
64679;BME280;51094;53.864;27.676;2024-01-10T01:09:25;99903.38;;;-2.40;95.57
64679;BME280;51094;53.864;27.676;2024-01-10T01:11:52;99938.78;;;-2.13;96.12
64679;BME280;51094;53.864;27.676;2024-01-10T01:14:19;99916.88;;;-2.30;96.31
64679;BME280;51094;53.864;27.676;2024-01-10T01:16:46;99883.09;;;-2.52;96.32
64679;BME280;51094;53.864;27.676;2024-01-10T01:19:13;99942.16;;;-2.08;96.62
64679;BME280;51094;53.864;27.676;2024-01-10T01:21:40;99945.53;;;-2.06;96.65
64679;BME280;51094;53.864;27.676;2024-01-10T01:24:07;99877.09;;;-2.44;96.61
64679;BME280;51094;53.864;27.676;2024-01-10T01:26:34;99947.13;;;-1.94;96.70
64679;BME280;51094;53.864;27.676;2024-01-10T01:29:01;99828.91;;;-2.65;96.47
64679;BME280;51094;53.864;27.676;2024-01-10T01:31:28;99925.31;;;-2.21;96.57
64679;BME280;51094;53.864;27.676;2024-01-10T01:33:55;99923.53;;;-2.16;96.46
64679;BME280;51094;53.864;27.676;2024-01-10T01:36:22;99887.22;;;-2.38;96.77
64679;BME280;51094;53.864;27.676;2024-01-10T01:38:49;99916.81;;;-2.23;97.21
64679;BME280;51094;53.864;27.676;2024-01-10T01:41:16;99942.13;;;-2.05;97.25
64679;BME280;51094;53.864;27.676;2024-01-10T01:43:43;99889.75;;;-2.36;97.33
64679;BME280;51094;53.864;27.676;2024-01-10T01:46:11;99945.47;;;-1.99;97.44
64679;BME280;51094;53.864;27.676;2024-01-10T01:48:38;99919.44;;;-2.30;97.41
64679;BME280;51094;53.864;27.676;2024-01-10T01:51:07;99905.00;;;-2.31;97.54
64679;BME280;51094;53.864;27.676;2024-01-10T01:53:35;99956.81;;;-2.34;97.59
64679;BME280;51094;53.864;27.676;2024-01-10T01:56:06;99946.31;;;-1.96;97.62
64679;BME280;51094;53.864;27.676;2024-01-10T01:58:33;99937.75;;;-1.90;98.14
64679;BME280;51094;53.864;27.676;2024-01-10T02:01:02;99943.69;;;-1.88;97.79
64679;BME280;51094;53.864;27.676;2024-01-10T02:03:31;99908.47;;;-2.42;97.68
64679;BME280;51094;53.864;27.676;2024-01-10T02:05:59;99909.84;;;-2.03;97.26
64679;BME280;51094;53.864;27.676;2024-01-10T02:08:26;99901.41;;;-2.11;97.55
64679;BME280;51094;53.864;27.676;2024-01-10T02:10:53;99920.00;;;-1.99;97.92
64679;BME280;51094;53.864;27.676;2024-01-10T02:13:20;99877.75;;;-2.22;97.93
64679;BME280;51094;53.864;27.676;2024-01-10T02:15:47;99916.56;;;-1.97;97.85
64679;BME280;51094;53.864;27.676;2024-01-10T02:18:14;99906.38;;;-1.95;98.09
64679;BME280;51094;53.864;27.676;2024-01-10T02:20:43;99909.66;;;-1.84;97.83
64679;BME280;51094;53.864;27.676;2024-01-10T02:23:11;99802.34;;;-2.40;97.86
64679;BME280;51094;53.864;27.676;2024-01-10T02:25:39;99866.50;;;-2.01;97.75
64679;BME280;51094;53.864;27.676;2024-01-10T02:28:07;99856.44;;;-2.15;97.33
64679;BME280;51094;53.864;27.676;2024-01-10T02:30:34;99869.13;;;-2.09;97.88
64679;BME280;51094;53.864;27.676;2024-01-10T02:33:01;99885.81;;;-1.80;98.18
64679;BME280;51094;53.864;27.676;2024-01-10T02:35:28;99900.25;;;-1.76;98.23
64679;BME280;51094;53.864;27.676;2024-01-10T02:37:56;99876.47;;;-1.78;98.44
64679;BME280;51094;53.864;27.676;2024-01-10T02:40:23;99793.75;;;-2.29;98.29
64679;BME280;51094;53.864;27.676;2024-01-10T02:42:50;99850.16;;;-1.83;98.83
64679;BME280;51094;53.864;27.676;2024-01-10T02:45:17;99867.72;;;-1.59;98.84
64679;BME280;51094;53.864;27.676;2024-01-10T02:47:45;99817.22;;;-2.00;97.71
64679;BME280;51094;53.864;27.676;2024-01-10T02:50:14;99848.50;;;-1.86;98.07
64679;BME280;51094;53.864;27.676;2024-01-10T02:52:42;99866.06;;;-1.63;98.88
64679;BME280;51094;53.864;27.676;2024-01-10T02:55:09;99861.75;;;-1.58;98.79
64679;BME280;51094;53.864;27.676;2024-01-10T02:57:36;99871.06;;;-1.54;98.57
64679;BME280;51094;53.864;27.676;2024-01-10T03:00:03;99865.84;;;-1.45;98.95
64679;BME280;51094;53.864;27.676;2024-01-10T03:02:32;99831.22;;;-1.64;98.58
64679;BME280;51094;53.864;27.676;2024-01-10T03:04:59;99854.75;;;-1.41;98.25
64679;BME280;51094;53.864;27.676;2024-01-10T03:07:26;99826.94;;;-1.60;97.79
64679;BME280;51094;53.864;27.676;2024-01-10T03:09:53;99813.41;;;-1.65;98.20
64679;BME280;51094;53.864;27.676;2024-01-10T03:12:20;99864.91;;;-1.38;97.90
64679;BME280;51094;53.864;27.676;2024-01-10T03:14:47;99790.91;;;-2.02;98.31
64679;BME280;51094;53.864;27.676;2024-01-10T03:17:14;99852.28;;;-1.47;98.37
64679;BME280;51094;53.864;27.676;2024-01-10T03:19:42;99850.56;;;-1.46;98.94
64679;BME280;51094;53.864;27.676;2024-01-10T03:22:11;99862.47;;;-1.45;99.08
64679;BME280;51094;53.864;27.676;2024-01-10T03:24:38;99857.31;;;-1.41;99.34
64679;BME280;51094;53.864;27.676;2024-01-10T03:27:06;99858.91;;;-1.32;99.54
64679;BME280;51094;53.864;27.676;2024-01-10T03:29:33;99780.34;;;-1.73;99.25
64679;BME280;51094;53.864;27.676;2024-01-10T03:32:02;99825.91;;;-1.46;98.93
64679;BME280;51094;53.864;27.676;2024-01-10T03:34:29;99842.63;;;-1.26;99.02
64679;BME280;51094;53.864;27.676;2024-01-10T03:36:55;99843.41;;;-1.20;99.10
64679;BME280;51094;53.864;27.676;2024-01-10T03:39:22;99826.47;;;-1.27;98.95
64679;BME280;51094;53.864;27.676;2024-01-10T03:41:49;99846.72;;;-1.13;99.18
64679;BME280;51094;53.864;27.676;2024-01-10T03:44:17;99845.84;;;-1.11;98.58
64679;BME280;51094;53.864;27.676;2024-01-10T03:46:44;99843.25;;;-1.08;98.66
64679;BME280;51094;53.864;27.676;2024-01-10T03:49:11;99837.22;;;-1.02;99.07
64679;BME280;51094;53.864;27.676;2024-01-10T03:51:38;99763.19;;;-1.60;98.45
64679;BME280;51094;53.864;27.676;2024-01-10T03:54:07;99850.00;;;-1.04;99.06
64679;BME280;51094;53.864;27.676;2024-01-10T03:56:34;99846.50;;;-0.96;98.85
64679;BME280;51094;53.864;27.676;2024-01-10T03:59:01;99851.56;;;-0.93;98.71
64679;BME280;51094;53.864;27.676;2024-01-10T04:01:29;99853.19;;;-0.89;98.61
64679;BME280;51094;53.864;27.676;2024-01-10T04:03:55;99848.84;;;-0.86;99.26
64679;BME280;51094;53.864;27.676;2024-01-10T04:06:22;99856.41;;;-0.78;98.61
64679;BME280;51094;53.864;27.676;2024-01-10T04:08:49;99860.50;;;-0.67;99.27
64679;BME280;51094;53.864;27.676;2024-01-10T04:11:16;99852.91;;;-0.73;97.99
64679;BME280;51094;53.864;27.676;2024-01-10T04:13:43;99856.47;;;-0.83;97.91
64679;BME280;51094;53.864;27.676;2024-01-10T04:16:11;99841.00;;;-0.74;97.96
64679;BME280;51094;53.864;27.676;2024-01-10T04:18:38;99859.59;;;-0.64;97.25
64679;BME280;51094;53.864;27.676;2024-01-10T04:21:05;99857.00;;;-0.61;97.86
64679;BME280;51094;53.864;27.676;2024-01-10T04:23:34;99867.09;;;-0.53;97.75
64679;BME280;51094;53.864;27.676;2024-01-10T04:26:01;99835.81;;;-0.68;97.24
64679;BME280;51094;53.864;27.676;2024-01-10T04:28:30;99860.38;;;-0.59;96.74
64679;BME280;51094;53.864;27.676;2024-01-10T04:30:57;99862.94;;;-0.59;97.31
64679;BME280;51094;53.864;27.676;2024-01-10T04:33:24;99826.47;;;-0.69;97.90
64679;BME280;51094;53.864;27.676;2024-01-10T04:35:51;99853.66;;;-0.64;97.70
64679;BME280;51094;53.864;27.676;2024-01-10T04:38:18;99865.38;;;-0.51;96.86
64679;BME280;51094;53.864;27.676;2024-01-10T04:40:45;99851.88;;;-0.59;97.16
64679;BME280;51094;53.864;27.676;2024-01-10T04:43:13;99869.59;;;-0.50;97.23
64679;BME280;51094;53.864;27.676;2024-01-10T04:45:40;99874.75;;;-0.52;97.40
64679;BME280;51094;53.864;27.676;2024-01-10T04:48:07;99869.66;;;-0.53;97.32
64679;BME280;51094;53.864;27.676;2024-01-10T04:50:35;99860.94;;;-0.43;97.89
64679;BME280;51094;53.864;27.676;2024-01-10T04:53:03;99855.75;;;-0.39;97.74
64679;BME280;51094;53.864;27.676;2024-01-10T04:55:30;99864.16;;;-0.32;97.15
64679;BME280;51094;53.864;27.676;2024-01-10T04:57:57;99863.41;;;-0.37;96.86
64679;BME280;51094;53.864;27.676;2024-01-10T05:00:24;99869.22;;;-0.29;97.49
64679;BME280;51094;53.864;27.676;2024-01-10T05:02:51;99746.94;;;-0.98;97.21
64679;BME280;51094;53.864;27.676;2024-01-10T05:05:20;99867.50;;;-0.27;96.55
64679;BME280;51094;53.864;27.676;2024-01-10T05:07:51;99857.63;;;-0.47;96.29
64679;BME280;51094;53.864;27.676;2024-01-10T05:10:18;99869.28;;;-0.32;96.61
64679;BME280;51094;53.864;27.676;2024-01-10T05:12:45;99871.00;;;-0.32;96.81
64679;BME280;51094;53.864;27.676;2024-01-10T05:15:12;99880.16;;;-0.21;97.39
64679;BME280;51094;53.864;27.676;2024-01-10T05:17:39;99851.53;;;-0.41;97.19
64679;BME280;51094;53.864;27.676;2024-01-10T05:20:06;99915.00;;;-0.15;96.58
64679;BME280;51094;53.864;27.676;2024-01-10T05:22:34;99889.44;;;-0.15;96.12
64679;BME280;51094;53.864;27.676;2024-01-10T05:25:01;99866.56;;;-0.23;96.38
64679;BME280;51094;53.864;27.676;2024-01-10T05:27:28;99791.50;;;-0.65;96.19
64679;BME280;51094;53.864;27.676;2024-01-10T05:29:55;99869.84;;;-0.15;96.20
64679;BME280;51094;53.864;27.676;2024-01-10T05:32:22;99864.63;;;-0.09;97.52
64679;BME280;51094;53.864;27.676;2024-01-10T05:34:49;99868.03;;;-0.08;96.10
64679;BME280;51094;53.864;27.676;2024-01-10T05:37:16;99890.09;;;-0.03;96.01
64679;BME280;51094;53.864;27.676;2024-01-10T05:39:43;99639.81;;;-1.53;95.65
64679;BME280;51094;53.864;27.676;2024-01-10T05:42:10;99831.78;;;-0.31;95.62
64679;BME280;51094;53.864;27.676;2024-01-10T05:44:38;99905.66;;;-0.16;95.19
64679;BME280;51094;53.864;27.676;2024-01-10T05:47:07;99879.31;;;-0.20;95.63
64679;BME280;51094;53.864;27.676;2024-01-10T05:49:34;99903.72;;;-0.02;95.79
64679;BME280;51094;53.864;27.676;2024-01-10T05:52:01;99870.19;;;-0.36;95.64
64679;BME280;51094;53.864;27.676;2024-01-10T05:54:28;99901.31;;;-0.11;96.18
64679;BME280;51094;53.864;27.676;2024-01-10T05:56:54;99907.13;;;-0.02;96.04
64679;BME280;51094;53.864;27.676;2024-01-10T05:59:21;99906.31;;;-0.05;95.76
64679;BME280;51094;53.864;27.676;2024-01-10T06:01:51;99859.91;;;-0.31;95.79
64679;BME280;51094;53.864;27.676;2024-01-10T06:04:17;99853.94;;;-0.32;95.70
64679;BME280;51094;53.864;27.676;2024-01-10T06:06:45;99903.59;;;0.03;95.58
64679;BME280;51094;53.864;27.676;2024-01-10T06:09:12;99865.56;;;-0.13;95.78
64679;BME280;51094;53.864;27.676;2024-01-10T06:11:42;99891.75;;;0.00;95.47
64679;BME280;51094;53.864;27.676;2024-01-10T06:14:10;99895.84;;;0.07;95.62
64679;BME280;51094;53.864;27.676;2024-01-10T06:16:37;99893.16;;;0.15;95.95
64679;BME280;51094;53.864;27.676;2024-01-10T06:19:04;99900.84;;;0.15;95.09
64679;BME280;51094;53.864;27.676;2024-01-10T06:21:31;99897.44;;;0.14;94.74
64679;BME280;51094;53.864;27.676;2024-01-10T06:23:58;99884.94;;;-0.01;94.24
64679;BME280;51094;53.864;27.676;2024-01-10T06:26:25;99894.97;;;0.10;94.72
64679;BME280;51094;53.864;27.676;2024-01-10T06:28:52;99826.78;;;-0.38;94.38
64679;BME280;51094;53.864;27.676;2024-01-10T06:31:22;99891.56;;;0.09;95.19
64679;BME280;51094;53.864;27.676;2024-01-10T06:33:49;99825.91;;;-0.35;94.46
64679;BME280;51094;53.864;27.676;2024-01-10T06:36:16;99836.22;;;-0.41;95.11
64679;BME280;51094;53.864;27.676;2024-01-10T06:38:42;99836.69;;;-0.19;94.86
64679;BME280;51094;53.864;27.676;2024-01-10T06:41:10;99894.72;;;0.23;94.36
64679;BME280;51094;53.864;27.676;2024-01-10T06:43:37;99909.13;;;0.29;94.55
64679;BME280;51094;53.864;27.676;2024-01-10T06:46:05;99804.88;;;-0.49;94.22
64679;BME280;51094;53.864;27.676;2024-01-10T06:48:32;99904.91;;;0.25;94.13
64679;BME280;51094;53.864;27.676;2024-01-10T06:50:59;99891.44;;;0.17;94.91
64679;BME280;51094;53.864;27.676;2024-01-10T06:53:26;99906.38;;;0.38;93.97
64679;BME280;51094;53.864;27.676;2024-01-10T06:55:53;99902.22;;;0.32;93.37
64679;BME280;51094;53.864;27.676;2024-01-10T06:58:20;99894.63;;;0.28;94.06
64679;BME280;51094;53.864;27.676;2024-01-10T07:00:47;99434.84;;;-2.46;93.57
64679;BME280;51094;53.864;27.676;2024-01-10T07:03:14;99892.91;;;0.30;94.39
64679;BME280;51094;53.864;27.676;2024-01-10T07:05:42;99847.75;;;0.27;94.43
64679;BME280;51094;53.864;27.676;2024-01-10T07:08:11;99845.06;;;0.33;94.58
64679;BME280;51094;53.864;27.676;2024-01-10T07:10:38;99822.28;;;0.21;94.69
64679;BME280;51094;53.864;27.676;2024-01-10T07:13:05;99866.16;;;0.45;93.30
64679;BME280;51094;53.864;27.676;2024-01-10T07:15:33;99865.09;;;0.55;93.47
64679;BME280;51094;53.864;27.676;2024-01-10T07:18:00;99903.72;;;0.86;93.41
64679;BME280;51094;53.864;27.676;2024-01-10T07:20:27;99891.09;;;0.77;92.16
64679;BME280;51094;53.864;27.676;2024-01-10T07:22:54;99900.47;;;0.78;92.16
64679;BME280;51094;53.864;27.676;2024-01-10T07:25:21;99880.31;;;0.61;92.07
64679;BME280;51094;53.864;27.676;2024-01-10T07:27:52;99802.00;;;0.12;91.70
64679;BME280;51094;53.864;27.676;2024-01-10T07:30:19;99833.97;;;0.35;91.41
64679;BME280;51094;53.864;27.676;2024-01-10T07:32:46;99845.31;;;0.21;90.76
64679;BME280;51094;53.864;27.676;2024-01-10T07:35:13;99903.38;;;0.59;91.21
64679;BME280;51094;53.864;27.676;2024-01-10T07:37:53;99936.53;;;0.65;92.23
64679;BME280;51094;53.864;27.676;2024-01-10T07:40:20;99898.94;;;0.69;92.10
64679;BME280;51094;53.864;27.676;2024-01-10T07:42:47;99781.09;;;-0.07;91.79
64679;BME280;51094;53.864;27.676;2024-01-10T07:45:14;99841.66;;;0.33;91.50
64679;BME280;51094;53.864;27.676;2024-01-10T07:47:40;99858.75;;;0.32;91.83
64679;BME280;51094;53.864;27.676;2024-01-10T07:50:09;99896.63;;;0.57;91.88
64679;BME280;51094;53.864;27.676;2024-01-10T07:52:36;99893.97;;;0.61;92.71
64679;BME280;51094;53.864;27.676;2024-01-10T07:55:03;99898.22;;;0.62;91.81
64679;BME280;51094;53.864;27.676;2024-01-10T07:57:35;99894.91;;;0.57;92.00
64679;BME280;51094;53.864;27.676;2024-01-10T08:00:07;99833.47;;;0.16;91.94
64679;BME280;51094;53.864;27.676;2024-01-10T08:02:37;99899.25;;;0.52;92.55
64679;BME280;51094;53.864;27.676;2024-01-10T08:05:06;99849.56;;;0.21;92.68
64679;BME280;51094;53.864;27.676;2024-01-10T08:07:37;99905.00;;;0.65;93.00
64679;BME280;51094;53.864;27.676;2024-01-10T08:10:07;99892.19;;;0.65;92.34
64679;BME280;51094;53.864;27.676;2024-01-10T08:12:36;99885.50;;;0.58;92.25
64679;BME280;51094;53.864;27.676;2024-01-10T08:15:06;99895.69;;;0.61;91.90
64679;BME280;51094;53.864;27.676;2024-01-10T08:17:33;99884.63;;;0.59;92.04
64679;BME280;51094;53.864;27.676;2024-01-10T08:20:01;99836.50;;;0.36;92.89
64679;BME280;51094;53.864;27.676;2024-01-10T08:22:31;99870.19;;;0.56;92.56
64679;BME280;51094;53.864;27.676;2024-01-10T08:24:58;99758.94;;;-0.08;92.55
64679;BME280;51094;53.864;27.676;2024-01-10T08:27:25;99890.34;;;0.72;92.88
64679;BME280;51094;53.864;27.676;2024-01-10T08:29:52;99825.41;;;0.37;92.28
64679;BME280;51094;53.864;27.676;2024-01-10T08:32:19;99829.56;;;0.41;92.52
64679;BME280;51094;53.864;27.676;2024-01-10T08:34:49;99889.25;;;0.83;92.65
64679;BME280;51094;53.864;27.676;2024-01-10T08:37:17;99850.56;;;0.57;92.19
64679;BME280;51094;53.864;27.676;2024-01-10T08:39:45;99835.19;;;0.57;91.73
64679;BME280;51094;53.864;27.676;2024-01-10T08:42:11;99880.78;;;0.81;91.94
64679;BME280;51094;53.864;27.676;2024-01-10T08:44:40;99899.22;;;0.95;91.87
64679;BME280;51094;53.864;27.676;2024-01-10T08:47:07;99860.28;;;0.81;92.13
64679;BME280;51094;53.864;27.676;2024-01-10T08:49:34;99902.66;;;0.94;91.00
64679;BME280;51094;53.864;27.676;2024-01-10T08:52:03;99904.22;;;1.02;92.07
64679;BME280;51094;53.864;27.676;2024-01-10T08:54:30;99876.16;;;0.95;91.08
64679;BME280;51094;53.864;27.676;2024-01-10T08:56:57;99840.22;;;0.61;90.41
64679;BME280;51094;53.864;27.676;2024-01-10T08:59:25;99900.72;;;1.06;90.88
64679;BME280;51094;53.864;27.676;2024-01-10T09:01:52;99886.44;;;0.94;90.59
64679;BME280;51094;53.864;27.676;2024-01-10T09:04:19;99854.59;;;0.67;90.41
64679;BME280;51094;53.864;27.676;2024-01-10T09:06:47;99866.38;;;0.76;90.05
64679;BME280;51094;53.864;27.676;2024-01-10T09:09:14;99848.44;;;0.77;90.47
64679;BME280;51094;53.864;27.676;2024-01-10T09:11:41;99897.38;;;1.02;90.43
64679;BME280;51094;53.864;27.676;2024-01-10T09:14:12;99889.50;;;1.11;91.40
64679;BME280;51094;53.864;27.676;2024-01-10T09:16:38;99801.97;;;0.55;89.82
64679;BME280;51094;53.864;27.676;2024-01-10T09:19:06;99812.69;;;0.73;89.65
64679;BME280;51094;53.864;27.676;2024-01-10T09:21:37;99864.66;;;1.15;90.20
64679;BME280;51094;53.864;27.676;2024-01-10T09:24:04;99884.91;;;1.25;89.39
64679;BME280;51094;53.864;27.676;2024-01-10T09:26:52;99873.63;;;1.32;89.60
64679;BME280;51094;53.864;27.676;2024-01-10T09:29:21;99870.06;;;1.38;89.49
64679;BME280;51094;53.864;27.676;2024-01-10T09:31:48;99880.28;;;1.40;88.58
64679;BME280;51094;53.864;27.676;2024-01-10T09:34:15;99776.78;;;0.76;89.02
64679;BME280;51094;53.864;27.676;2024-01-10T09:36:43;99819.59;;;1.06;88.87
64679;BME280;51094;53.864;27.676;2024-01-10T09:39:10;99852.31;;;1.30;88.81
64679;BME280;51094;53.864;27.676;2024-01-10T09:41:51;99865.56;;;1.12;87.38
64679;BME280;51094;53.864;27.676;2024-01-10T09:44:20;99894.34;;;1.23;88.95
64679;BME280;51094;53.864;27.676;2024-01-10T09:46:53;99883.72;;;1.39;88.12
64679;BME280;51094;53.864;27.676;2024-01-10T09:49:21;99855.19;;;1.18;88.62
64679;BME280;51094;53.864;27.676;2024-01-10T09:51:49;99876.78;;;1.44;89.14
64679;BME280;51094;53.864;27.676;2024-01-10T09:54:17;99824.38;;;1.21;89.07
64679;BME280;51094;53.864;27.676;2024-01-10T09:56:47;99871.28;;;1.59;89.36
64679;BME280;51094;53.864;27.676;2024-01-10T09:59:14;99871.63;;;1.79;89.51
64679;BME280;51094;53.864;27.676;2024-01-10T10:01:42;99844.28;;;1.78;89.57
64679;BME280;51094;53.864;27.676;2024-01-10T10:04:12;99865.69;;;2.11;89.39
64679;BME280;51094;53.864;27.676;2024-01-10T10:06:39;99846.13;;;2.07;88.57
64679;BME280;51094;53.864;27.676;2024-01-10T10:09:07;99778.06;;;1.63;88.14
64679;BME280;51094;53.864;27.676;2024-01-10T10:11:36;99838.34;;;2.10;88.67
64679;BME280;51094;53.864;27.676;2024-01-10T10:14:16;99871.25;;;2.25;86.66
64679;BME280;51094;53.864;27.676;2024-01-10T10:16:43;99870.84;;;2.10;86.20
64679;BME280;51094;53.864;27.676;2024-01-10T10:19:11;99864.72;;;2.15;86.81
64679;BME280;51094;53.864;27.676;2024-01-10T10:21:50;99874.19;;;2.13;86.93
64679;BME280;51094;53.864;27.676;2024-01-10T10:24:18;99863.22;;;2.07;85.90
64679;BME280;51094;53.864;27.676;2024-01-10T10:26:48;99853.50;;;1.85;84.44
64679;BME280;51094;53.864;27.676;2024-01-10T10:29:17;99858.72;;;1.82;85.69
64679;BME280;51094;53.864;27.676;2024-01-10T10:31:49;99813.75;;;1.71;86.51
64679;BME280;51094;53.864;27.676;2024-01-10T10:34:21;99855.84;;;1.94;85.20
64679;BME280;51094;53.864;27.676;2024-01-10T10:36:49;99859.88;;;2.05;85.90
64679;BME280;51094;53.864;27.676;2024-01-10T10:39:17;99852.72;;;2.16;86.24
64679;BME280;51094;53.864;27.676;2024-01-10T10:41:46;99859.47;;;2.18;85.62
64679;BME280;51094;53.864;27.676;2024-01-10T10:44:18;99857.59;;;2.25;86.03
64679;BME280;51094;53.864;27.676;2024-01-10T10:46:53;99853.38;;;2.22;85.78
64679;BME280;51094;53.864;27.676;2024-01-10T10:49:45;99827.56;;;1.97;86.13
64679;BME280;51094;53.864;27.676;2024-01-10T10:52:15;99854.81;;;2.32;84.79
64679;BME280;51094;53.864;27.676;2024-01-10T10:54:42;99848.84;;;2.32;84.59
64679;BME280;51094;53.864;27.676;2024-01-10T10:57:11;99849.13;;;2.21;84.09
64679;BME280;51094;53.864;27.676;2024-01-10T10:59:39;99861.03;;;2.24;84.82
64679;BME280;51094;53.864;27.676;2024-01-10T11:02:09;99802.59;;;2.04;84.92
64679;BME280;51094;53.864;27.676;2024-01-10T11:04:39;99836.97;;;2.28;85.17
64679;BME280;51094;53.864;27.676;2024-01-10T11:07:07;99810.31;;;2.03;85.63
64679;BME280;51094;53.864;27.676;2024-01-10T11:09:35;99862.84;;;2.51;84.72
64679;BME280;51094;53.864;27.676;2024-01-10T11:20:30;99856.66;;;1.96;83.35
64679;BME280;51094;53.864;27.676;2024-01-10T11:25:48;99847.38;;;1.91;83.32
64679;BME280;51094;53.864;27.676;2024-01-10T11:28:16;99788.63;;;1.51;83.13
64679;BME280;51094;53.864;27.676;2024-01-10T11:30:53;99806.44;;;1.55;83.41
64679;BME280;51094;53.864;27.676;2024-01-10T11:33:33;99853.59;;;1.82;83.56
64679;BME280;51094;53.864;27.676;2024-01-10T11:39:03;99813.41;;;1.83;84.39
64679;BME280;51094;53.864;27.676;2024-01-10T11:41:35;99800.53;;;1.84;84.03
64679;BME280;51094;53.864;27.676;2024-01-10T11:46:40;99844.56;;;2.02;83.02
64679;BME280;51094;53.864;27.676;2024-01-10T11:49:15;99837.63;;;1.73;83.09
64679;BME280;51094;53.864;27.676;2024-01-10T11:51:43;99837.38;;;1.48;84.34
64679;BME280;51094;53.864;27.676;2024-01-10T11:57:03;99851.34;;;1.34;85.74
64679;BME280;51094;53.864;27.676;2024-01-10T11:59:31;99823.31;;;1.30;86.51
64679;BME280;51094;53.864;27.676;2024-01-10T12:01:58;99811.72;;;1.15;86.46
64679;BME280;51094;53.864;27.676;2024-01-10T12:04:25;99798.53;;;0.93;86.77
64679;BME280;51094;53.864;27.676;2024-01-10T12:07:13;99817.56;;;1.20;86.79
64679;BME280;51094;53.864;27.676;2024-01-10T12:09:40;99815.88;;;1.19;87.50
64679;BME280;51094;53.864;27.676;2024-01-10T12:12:08;99791.44;;;1.06;87.64
64679;BME280;51094;53.864;27.676;2024-01-10T12:14:39;99828.63;;;1.22;87.82
64679;BME280;51094;53.864;27.676;2024-01-10T12:17:07;99735.94;;;0.71;87.46
64679;BME280;51094;53.864;27.676;2024-01-10T12:19:37;99815.81;;;1.22;87.66
64679;BME280;51094;53.864;27.676;2024-01-10T12:22:05;99814.16;;;1.20;87.79
64679;BME280;51094;53.864;27.676;2024-01-10T12:24:42;99808.22;;;1.18;88.17
64679;BME280;51094;53.864;27.676;2024-01-10T12:27:11;99745.88;;;0.83;88.36
64679;BME280;51094;53.864;27.676;2024-01-10T12:29:38;99805.66;;;1.18;88.52
64679;BME280;51094;53.864;27.676;2024-01-10T12:32:06;99792.88;;;1.18;88.54
64679;BME280;51094;53.864;27.676;2024-01-10T12:34:37;99690.97;;;0.59;88.59
64679;BME280;51094;53.864;27.676;2024-01-10T12:37:04;99793.28;;;1.35;88.13
64679;BME280;51094;53.864;27.676;2024-01-10T12:39:32;99742.75;;;1.06;87.47
64679;BME280;51094;53.864;27.676;2024-01-10T12:41:59;99746.13;;;1.08;88.03
64679;BME280;51094;53.864;27.676;2024-01-10T12:44:32;99759.47;;;1.21;86.95
64679;BME280;51094;53.864;27.676;2024-01-10T12:46:59;99781.31;;;1.36;87.55
64679;BME280;51094;53.864;27.676;2024-01-10T12:49:27;99693.78;;;0.86;87.11
64679;BME280;51094;53.864;27.676;2024-01-10T12:51:54;99695.38;;;0.88;87.24
64679;BME280;51094;53.864;27.676;2024-01-10T12:54:21;99764.25;;;1.34;86.89
64679;BME280;51094;53.864;27.676;2024-01-10T12:56:49;99704.59;;;0.95;86.91
64679;BME280;51094;53.864;27.676;2024-01-10T12:59:17;99740.72;;;1.20;86.90
64679;BME280;51094;53.864;27.676;2024-01-10T13:01:44;99762.88;;;1.21;86.51
64679;BME280;51094;53.864;27.676;2024-01-10T13:04:11;99750.75;;;1.29;86.40
64679;BME280;51094;53.864;27.676;2024-01-10T13:06:39;99733.91;;;1.19;85.97
64679;BME280;51094;53.864;27.676;2024-01-10T13:09:07;99750.78;;;1.28;86.13
64679;BME280;51094;53.864;27.676;2024-01-10T13:11:34;99735.69;;;1.16;86.47
64679;BME280;51094;53.864;27.676;2024-01-10T13:14:01;99744.53;;;1.37;86.84
64679;BME280;51094;53.864;27.676;2024-01-10T13:16:29;99746.13;;;1.42;86.75
64679;BME280;51094;53.864;27.676;2024-01-10T13:19:00;99746.19;;;1.39;86.11